createdAt,value
2017-11-16T00:00:29.427Z,18.30
2017-11-16T00:03:52.902Z,18.30
2017-11-16T00:07:16.489Z,18.30
2017-11-16T00:10:39.960Z,18.30
2017-11-16T00:14:03.424Z,18.30
2017-11-16T00:17:26.954Z,18.20
2017-11-16T00:20:50.628Z,18.20
2017-11-16T00:24:14.932Z,18.20
2017-11-16T00:27:39.182Z,18.20
2017-11-16T00:31:02.672Z,18.20
2017-11-16T00:34:26.184Z,18.20
2017-11-16T00:37:49.721Z,18.10
2017-11-16T00:41:13.236Z,18.10
2017-11-16T00:44:36.747Z,18.10
2017-11-16T00:48:01.784Z,18.10
2017-11-16T00:51:26.307Z,18.10
2017-11-16T00:54:49.863Z,18.00
2017-11-16T00:58:13.736Z,18.00
2017-11-16T01:01:37.444Z,18.00
2017-11-16T01:05:00.952Z,18.00
2017-11-16T01:08:25.220Z,18.00
2017-11-16T01:11:48.705Z,17.90
2017-11-16T01:15:12.165Z,17.90
2017-11-16T01:18:35.748Z,17.90
2017-11-16T01:21:59.234Z,17.90
2017-11-16T01:25:22.731Z,17.90
2017-11-16T01:28:46.252Z,17.90
2017-11-16T01:32:09.740Z,17.90
2017-11-16T01:35:33.232Z,17.90
2017-11-16T01:38:57.707Z,17.80
2017-11-16T01:42:21.236Z,17.80
2017-11-16T01:45:45.480Z,17.80
2017-11-16T01:49:08.955Z,17.70
2017-11-16T01:52:33.229Z,17.70
2017-11-16T01:55:57.536Z,17.70
2017-11-16T01:59:21.101Z,17.70
2017-11-16T02:02:45.551Z,17.70
2017-11-16T02:06:09.006Z,17.70
2017-11-16T02:09:33.311Z,17.70
2017-11-16T02:12:57.645Z,17.70
2017-11-16T02:16:21.089Z,17.60
2017-11-16T02:19:45.420Z,17.60
2017-11-16T02:23:08.921Z,17.60
2017-11-16T02:26:33.184Z,17.60
2017-11-16T02:29:56.670Z,17.50
2017-11-16T02:33:20.152Z,17.60
2017-11-16T02:36:44.487Z,17.60
2017-11-16T02:40:07.959Z,17.60
2017-11-16T02:43:31.637Z,17.60
2017-11-16T02:46:55.100Z,17.50
2017-11-16T02:50:18.784Z,17.60
2017-11-16T02:53:42.246Z,17.50
2017-11-16T02:57:05.824Z,17.50
2017-11-16T03:00:29.466Z,17.50
2017-11-16T03:03:52.968Z,17.50
2017-11-16T03:07:16.472Z,17.50
2017-11-16T03:10:40.016Z,17.50
2017-11-16T03:14:03.499Z,17.50
2017-11-16T03:17:26.999Z,17.50
2017-11-16T03:20:50.499Z,17.50
2017-11-16T03:24:14.823Z,17.50
2017-11-16T03:27:38.320Z,17.40
2017-11-16T03:31:01.873Z,17.50
2017-11-16T03:34:25.373Z,17.50
2017-11-16T03:37:49.648Z,17.40
2017-11-16T03:41:13.096Z,17.40
2017-11-16T03:44:37.784Z,17.40
2017-11-16T03:48:02.518Z,17.40
2017-11-16T03:51:25.997Z,17.40
2017-11-16T03:54:49.490Z,17.40
2017-11-16T03:58:13.048Z,17.40
2017-11-16T04:01:36.551Z,17.40
2017-11-16T04:05:00.032Z,17.40
2017-11-16T04:08:24.386Z,17.40
2017-11-16T04:11:47.855Z,17.30
2017-11-16T04:15:12.296Z,17.30
2017-11-16T04:18:35.799Z,17.30
2017-11-16T04:21:59.261Z,17.30
2017-11-16T04:25:22.749Z,17.30
2017-11-16T04:28:46.208Z,17.30
2017-11-16T04:32:09.696Z,17.30
2017-11-16T04:35:34.100Z,17.30
2017-11-16T04:38:58.379Z,17.30
2017-11-16T04:42:21.853Z,17.30
2017-11-16T04:45:45.323Z,17.30
2017-11-16T04:49:08.807Z,17.20
2017-11-16T04:52:32.316Z,17.20
2017-11-16T04:55:55.912Z,17.20
2017-11-16T04:59:19.368Z,17.20
2017-11-16T05:02:43.904Z,17.50
2017-11-16T05:06:07.364Z,17.40
2017-11-16T05:09:30.923Z,17.90
2017-11-16T05:12:54.399Z,18.30
2017-11-16T05:16:17.900Z,18.60
2017-11-16T05:19:41.367Z,19.10
2017-11-16T05:23:04.830Z,19.60
2017-11-16T05:26:28.313Z,20.30
2017-11-16T05:29:51.784Z,20.90
2017-11-16T05:33:15.252Z,21.50
2017-11-16T05:36:38.712Z,21.80
2017-11-16T05:40:02.188Z,22.00
2017-11-16T05:43:25.704Z,22.30
2017-11-16T05:46:49.173Z,22.60
2017-11-16T05:50:12.655Z,22.70
2017-11-16T05:53:37.668Z,23.10
2017-11-16T05:57:01.262Z,23.10
2017-11-16T06:00:24.780Z,23.20
2017-11-16T06:03:48.313Z,23.40
2017-11-16T06:07:12.564Z,23.40
2017-11-16T06:10:36.308Z,23.40
2017-11-16T06:13:59.786Z,23.60
2017-11-16T06:17:23.265Z,23.60
2017-11-16T06:20:47.588Z,23.70
2017-11-16T06:24:11.287Z,23.80
2017-11-16T06:27:35.603Z,23.80
2017-11-16T06:30:59.068Z,23.80
2017-11-16T06:34:22.586Z,23.90
2017-11-16T06:37:46.967Z,23.80
2017-11-16T06:41:10.407Z,23.80
2017-11-16T06:44:33.851Z,23.70
2017-11-16T06:47:58.176Z,23.50
2017-11-16T06:51:21.626Z,23.40
2017-11-16T06:54:45.873Z,23.20
2017-11-16T06:58:09.383Z,23.10
2017-11-16T07:01:33.636Z,22.70
2017-11-16T07:04:57.155Z,22.70
2017-11-16T07:08:21.402Z,22.20
2017-11-16T07:11:44.937Z,22.20
2017-11-16T07:15:08.449Z,22.00
2017-11-16T07:18:33.547Z,21.70
2017-11-16T07:21:57.053Z,21.70
2017-11-16T07:25:22.063Z,21.20
2017-11-16T07:28:46.450Z,21.00
2017-11-16T07:32:10.832Z,20.80
2017-11-16T07:35:34.315Z,20.80
2017-11-16T07:38:59.304Z,20.50
2017-11-16T07:42:22.764Z,20.50
2017-11-16T07:45:46.240Z,20.70
2017-11-16T07:49:09.787Z,20.90
2017-11-16T07:52:33.233Z,21.20
2017-11-16T07:55:56.772Z,21.60
2017-11-16T07:59:21.006Z,22.40
2017-11-16T08:02:44.531Z,22.40
2017-11-16T08:06:09.507Z,23.10
2017-11-16T08:09:33.835Z,23.30
2017-11-16T08:12:58.803Z,23.60
2017-11-16T08:16:22.341Z,23.60
2017-11-16T08:19:45.888Z,23.70
2017-11-16T08:23:09.448Z,23.90
2017-11-16T08:26:32.947Z,24.00
2017-11-16T08:29:57.172Z,24.20
2017-11-16T08:33:20.663Z,24.10
2017-11-16T08:36:44.139Z,24.30
2017-11-16T08:40:07.621Z,24.30
2017-11-16T08:43:31.092Z,24.30
2017-11-16T08:46:54.605Z,24.50
2017-11-16T08:50:18.881Z,24.50
2017-11-16T08:53:42.341Z,24.50
2017-11-16T08:57:05.800Z,24.60
2017-11-16T09:00:29.289Z,24.50
2017-11-16T09:03:52.862Z,24.60
2017-11-16T09:07:16.332Z,24.60
2017-11-16T09:10:39.804Z,24.60
2017-11-16T09:14:03.253Z,24.70
2017-11-16T09:17:27.533Z,24.70
2017-11-16T09:20:51.010Z,24.70
2017-11-16T09:24:14.466Z,24.80
2017-11-16T09:27:37.984Z,24.90
2017-11-16T09:31:01.443Z,24.90
2017-11-16T09:34:25.727Z,24.90
2017-11-16T09:37:49.205Z,25.00
2017-11-16T09:41:12.652Z,24.90
2017-11-16T09:44:36.133Z,25.00
2017-11-16T09:47:59.585Z,25.00
2017-11-16T09:51:23.304Z,25.00
2017-11-16T09:54:46.809Z,25.10
2017-11-16T09:58:11.104Z,24.90
2017-11-16T10:01:35.453Z,25.00
2017-11-16T10:04:58.911Z,25.00
2017-11-16T10:08:22.486Z,25.00
2017-11-16T10:11:45.961Z,25.00
2017-11-16T10:15:09.460Z,24.90
2017-11-16T10:18:33.089Z,25.00
2017-11-16T10:21:56.586Z,25.00
2017-11-16T10:25:20.052Z,24.90
2017-11-16T10:28:43.641Z,24.80
2017-11-16T10:32:07.084Z,24.90
2017-11-16T10:35:30.591Z,24.80
2017-11-16T10:38:54.217Z,24.70
2017-11-16T10:42:17.679Z,24.60
2017-11-16T10:45:41.240Z,24.70
2017-11-16T10:49:04.911Z,24.60
2017-11-16T10:52:29.172Z,24.60
2017-11-16T10:55:53.542Z,24.60
2017-11-16T10:59:17.314Z,24.60
2017-11-16T11:02:40.965Z,24.60
2017-11-16T11:06:04.474Z,24.50
2017-11-16T11:09:27.963Z,24.50
2017-11-16T11:12:51.754Z,24.50
2017-11-16T11:16:16.015Z,24.30
2017-11-16T11:19:39.531Z,24.30
2017-11-16T11:23:03.068Z,24.30
2017-11-16T11:26:26.584Z,24.30
2017-11-16T11:29:50.828Z,24.20
2017-11-16T11:33:14.487Z,24.20
2017-11-16T11:36:38.039Z,24.10
2017-11-16T11:40:02.271Z,24.10
2017-11-16T11:43:25.744Z,24.10
2017-11-16T11:46:49.268Z,24.00
2017-11-16T11:50:12.753Z,24.00
2017-11-16T11:53:37.021Z,24.00
2017-11-16T11:57:01.627Z,24.00
2017-11-16T12:00:25.310Z,24.00
2017-11-16T12:03:49.536Z,24.00
2017-11-16T12:07:13.050Z,24.00
2017-11-16T12:10:37.291Z,24.00
2017-11-16T12:14:00.819Z,24.00
2017-11-16T12:17:25.032Z,24.10
2017-11-16T12:20:48.625Z,24.10
2017-11-16T12:24:12.128Z,24.00
2017-11-16T12:27:35.617Z,24.00
2017-11-16T12:31:18.693Z,24.00
2017-11-16T12:34:42.224Z,24.00
2017-11-16T12:38:05.725Z,23.90
2017-11-16T12:41:29.203Z,23.90
2017-11-16T12:44:52.671Z,23.90
2017-11-16T12:48:16.166Z,23.80
2017-11-16T12:51:39.654Z,23.80
2017-11-16T12:55:03.132Z,23.90
2017-11-16T12:58:26.673Z,23.90
2017-11-16T13:01:50.152Z,24.00
2017-11-16T13:05:13.755Z,23.90
2017-11-16T13:08:37.547Z,23.90
2017-11-16T13:12:01.797Z,23.70
2017-11-16T13:15:25.370Z,23.70
2017-11-16T13:18:48.960Z,23.80
2017-11-16T13:22:12.460Z,23.60
2017-11-16T13:25:36.774Z,23.50
2017-11-16T13:29:01.032Z,23.50
2017-11-16T13:32:24.494Z,23.50
2017-11-16T13:35:47.997Z,23.50
2017-11-16T13:39:11.474Z,23.50
2017-11-16T13:42:35.920Z,23.50
2017-11-16T13:45:59.454Z,23.50
2017-11-16T13:49:23.776Z,23.40
2017-11-16T13:56:43.384Z,23.40
2017-11-16T14:03:59.446Z,23.10
2017-11-16T14:07:25.026Z,22.90
2017-11-16T14:14:42.174Z,22.90
2017-11-16T14:18:05.655Z,23.00
2017-11-16T14:21:30.788Z,22.80
2017-11-16T14:24:54.265Z,22.80
2017-11-16T14:28:17.741Z,22.90
2017-11-16T14:31:41.208Z,22.90
2017-11-16T14:35:04.720Z,22.80
2017-11-16T14:38:28.924Z,22.90
2017-11-16T15:16:53.797Z,22.40
2017-11-16T15:20:17.280Z,22.50
2017-11-16T15:27:33.119Z,22.60
2017-11-16T15:30:56.613Z,22.50
2017-11-16T15:34:20.864Z,22.40
2017-11-16T15:41:37.204Z,22.30
2017-11-16T15:45:01.519Z,22.20
2017-11-16T15:48:25.805Z,22.00
2017-11-16T15:51:50.209Z,21.90
2017-11-16T15:55:14.488Z,21.70
2017-11-16T15:58:37.967Z,21.70
2017-11-16T16:02:01.569Z,21.60
2017-11-16T16:05:25.807Z,21.20
2017-11-16T16:08:49.313Z,21.20
2017-11-16T16:12:12.847Z,21.10
2017-11-16T16:15:36.387Z,20.90
2017-11-16T16:18:59.889Z,20.70
2017-11-16T16:22:25.650Z,20.60
2017-11-16T16:25:50.005Z,20.40
2017-11-16T16:29:13.500Z,20.30
2017-11-16T16:32:37.792Z,20.10
2017-11-16T16:36:01.264Z,20.10
2017-11-16T16:39:24.786Z,20.10
2017-11-16T16:42:48.513Z,20.00
2017-11-16T16:46:11.989Z,19.90
2017-11-16T16:49:35.497Z,19.90
2017-11-16T16:52:58.995Z,19.80
2017-11-16T16:56:22.486Z,19.80
2017-11-16T16:59:46.031Z,19.70
2017-11-16T17:03:09.592Z,19.70
2017-11-16T17:06:33.157Z,19.60
2017-11-16T17:09:57.539Z,19.60
2017-11-16T17:13:21.051Z,19.60
2017-11-16T17:16:44.540Z,19.70
2017-11-16T17:20:08.037Z,19.80
2017-11-16T17:23:31.631Z,19.90
2017-11-16T17:26:56.099Z,19.80
2017-11-16T17:30:19.594Z,19.80
2017-11-16T17:33:43.142Z,19.80
2017-11-16T17:37:06.625Z,19.80
2017-11-16T17:40:30.301Z,19.80
2017-11-16T17:43:53.797Z,19.70
2017-11-16T17:51:11.339Z,19.70
2017-11-16T17:54:36.494Z,19.70
2017-11-16T17:57:59.983Z,19.70
2017-11-16T18:01:23.497Z,19.70
2017-11-16T18:04:47.024Z,19.70
2017-11-16T18:12:04.244Z,19.60
2017-11-16T18:15:28.556Z,19.60
2017-11-16T18:18:52.759Z,19.60
2017-11-16T18:22:16.450Z,19.60
2017-11-16T18:25:39.945Z,19.70
2017-11-16T18:29:03.620Z,19.80
2017-11-16T18:32:27.139Z,19.80
2017-11-16T18:35:50.599Z,19.80
2017-11-16T18:39:14.180Z,19.90
2017-11-16T18:42:38.564Z,20.10
2017-11-16T18:46:02.768Z,20.20
2017-11-16T18:49:26.313Z,20.20
2017-11-16T18:52:50.595Z,20.60
2017-11-16T18:56:16.366Z,20.80
2017-11-16T18:59:39.997Z,20.80
2017-11-16T19:03:04.279Z,21.00
2017-11-16T19:06:28.775Z,21.00
2017-11-16T19:09:52.644Z,21.20
2017-11-16T19:13:16.698Z,21.10
2017-11-16T19:16:40.955Z,21.20
2017-11-16T19:20:05.310Z,21.20
2017-11-16T19:23:28.853Z,21.20
2017-11-16T19:26:52.389Z,21.20
2017-11-16T19:30:16.695Z,21.00
2017-11-16T19:33:40.949Z,20.90
2017-11-16T19:37:04.486Z,20.90
2017-11-16T19:40:28.032Z,20.90
2017-11-16T19:43:51.671Z,20.80
2017-11-16T19:47:15.203Z,20.80
2017-11-16T19:50:38.848Z,20.80
2017-11-16T19:54:02.517Z,20.90
2017-11-16T19:57:26.256Z,20.90
2017-11-16T20:00:49.769Z,20.90
2017-11-16T20:04:14.064Z,20.90
2017-11-16T20:07:37.621Z,20.90
2017-11-16T20:11:01.958Z,20.90
2017-11-16T20:14:25.535Z,20.90
2017-11-16T20:17:49.055Z,20.90
2017-11-16T20:21:14.168Z,20.90
2017-11-16T20:24:37.737Z,20.90
2017-11-16T20:28:01.231Z,20.90
2017-11-16T20:31:25.689Z,20.80
2017-11-16T20:34:49.179Z,20.80
2017-11-16T20:38:12.796Z,20.90
2017-11-16T20:41:41.941Z,21.10
2017-11-16T20:53:03.411Z,21.10
2017-11-16T20:56:26.927Z,21.10
2017-11-16T20:59:51.227Z,21.10
2017-11-16T21:03:14.896Z,21.00
2017-11-16T21:06:39.173Z,21.30
2017-11-16T21:10:02.651Z,21.20
2017-11-16T21:13:26.984Z,21.20
2017-11-16T21:16:50.535Z,21.20
2017-11-16T21:24:06.946Z,21.10
2017-11-16T21:27:30.485Z,21.00
2017-11-16T21:30:53.967Z,20.90
2017-11-16T21:34:17.447Z,20.80
2017-11-16T21:37:41.130Z,20.70
2017-11-16T21:41:04.685Z,20.50
2017-11-16T21:44:28.165Z,20.40
2017-11-16T21:47:51.856Z,20.30
2017-11-16T21:51:15.341Z,20.20
2017-11-16T21:54:38.822Z,20.00
2017-11-16T21:58:03.077Z,20.00
2017-11-16T22:01:26.561Z,20.00
2017-11-16T22:04:50.115Z,19.90
2017-11-16T22:08:13.563Z,19.80
2017-11-16T22:11:37.120Z,19.70
2017-11-16T22:15:01.362Z,19.50
2017-11-16T22:18:24.871Z,19.50
2017-11-16T22:21:48.339Z,19.40
2017-11-16T22:25:12.561Z,19.30
2017-11-16T22:28:36.117Z,19.30
2017-11-16T22:32:00.357Z,19.30
2017-11-16T22:35:23.843Z,19.20
2017-11-16T22:38:48.137Z,19.20
2017-11-16T22:42:11.683Z,19.10
2017-11-16T22:45:35.158Z,19.10
2017-11-16T22:48:58.641Z,19.10
2017-11-16T22:52:22.117Z,19.00
2017-11-16T22:55:45.811Z,19.00
2017-11-16T22:59:10.076Z,18.90
2017-11-16T23:02:34.423Z,18.80
2017-11-16T23:05:57.903Z,18.80
2017-11-16T23:09:21.479Z,18.80
2017-11-16T23:12:45.816Z,18.70
2017-11-16T23:16:09.411Z,18.70
2017-11-16T23:19:32.883Z,18.70
2017-11-16T23:22:57.151Z,18.60
2017-11-16T23:26:20.654Z,18.60
2017-11-16T23:29:44.156Z,18.60
2017-11-16T23:33:07.653Z,18.60
2017-11-16T23:36:33.245Z,18.50
2017-11-16T23:39:58.464Z,18.50
2017-11-16T23:43:23.174Z,18.40
2017-11-16T23:46:48.059Z,18.50
2017-11-16T23:50:16.133Z,18.40
2017-11-16T23:53:41.184Z,18.40
2017-11-16T23:57:05.385Z,18.40
